首页
METAR-TAF:

METAR-TAF

机场 :

尼斯蓝色海岸机场

尼斯, 法国

纬度: 43-39N, 经度: 007-12E, 海拔: 4米

当前天气观测

该预报发布于19分钟前的03:00 UTC
风速5节,风向
温度 14°C
湿度 82%
气压 1016 hPa
能见度10公里或以上
少量云层高于10000英尺

METAR: LFMN 240300Z 35005KT 9999 FEW100 14/11 Q1016 NOSIG

时间: 05:19 (03:19 UTC)

预报

该预报发布于1小时和19分钟前的02:00 UTC
预报有效从24日的 03点(UTC)到 25日的 09点(UTC)
风速10节,风向北转西北
能见度10公里或以上
1500米以下无云,无积雨云
成为
从 24日的 05点(UTC)到 24日的 07点(UTC)
风速10节,风向
几率 40% :
短暂存在
从 24日的 07点(UTC)到 24日的 11点(UTC)
风速20节,风向东转东北
成为
从 24日的 15点(UTC)到 24日的 17点(UTC)
风速5节,风向多变
几率 40% :
短暂存在
从 24日的 18点(UTC)到 25日的 05点(UTC)
多云层高于2000英尺
短暂存在
从 24日的 20点(UTC)到 25日的 08点(UTC)
风速10节,风向北转西北

TAF: LFMN 240200Z 2403/2509 34010KT CAVOK BECMG 2405/2407 09010KT PROB40 TEMPO 2407/2411 07020KT BECMG 2415/2417 VRB05KT PROB40 TEMPO 2418/2505 BKN020 TEMPO 2420/2508 34010KT

超过4000个机场的气象观测和天气预报(METAR&TAF报告)。

可查询的气象台以黄色和红色小点在地图上表示。

将鼠标移到小点上方,可查看气象台名称。

然后点击查看天气观测和预报。

如需切换地图:点击带黑十字的绿色按钮放大地图;点击带横线的绿色按钮缩小地图;或者点击绿色箭头查看邻近地区的地图。


METAR-TAF: